Date,TemperatureHighF,TemperatureAvgF,TemperatureLowF,DewpointHighF,DewpointAvgF,DewpointLowF,HumidityHigh,HumidityAvg,HumidityLow,PressureMaxIn,PressureMinIn,WindSpeedMaxMPH,WindSpeedAvgMPH,GustSpeedMaxMPH,PrecipitationSumIn
2013-1-1,29.0,27.0,23.7,0.0,0.0,0.0,0,0,100,0.00,0.00,3,1,3,0.00
2013-1-2,18.8,8.1,-5.5,0.0,0.0,0.0,0,0,100,0.00,0.00,3,1,3,0.00
2013-1-3,11.2,0.3,-10.8,0.0,0.0,0.0,0,0,100,0.00,0.00,0,0,0,0.00
2013-1-4,31.5,23.8,11.2,0.0,0.0,0.0,0,0,100,0.00,0.00,4,0,4,0.00
2013-1-5,29.9,26.5,17.8,0.0,0.0,0.0,0,0,100,0.00,0.00,4,1,4,0.00
2013-1-6,32.3,25.4,15.7,0.0,0.0,0.0,0,0,100,0.00,0.00,0,0,0,0.00
2013-1-7,31.5,27.8,21.8,0.0,0.0,0.0,0,0,100,0.00,0.00,1,0,1,0.00
2013-1-8,37.0,28.8,19.8,0.0,0.0,0.0,0,0,100,0.00,0.00,2,0,2,0.00
2013-1-9,39.3,31.0,21.8,0.0,0.0,0.0,0,0,100,0.00,0.00,4,0,4,0.00
2013-1-10,38.5,35.2,29.9,0.0,0.0,0.0,0,0,100,0.00,0.00,4,2,4,0.00
2013-1-11,34.7,29.7,23.7,0.0,0.0,0.0,0,0,100,0.00,0.00,0,0,0,0.00
2013-1-12,38.5,35.1,32.3,0.0,0.0,0.0,0,0,100,0.00,0.00,0,0,0,0.00
2013-1-13,44.3,39.9,34.7,0.0,0.0,0.0,0,0,100,0.00,0.00,0,0,0,0.00
2013-1-14,49.6,41.8,33.2,0.0,0.0,0.0,0,0,100,0.00,0.00,4,1,4,0.00
2013-1-15,31.5,29.4,26.4,0.0,0.0,0.0,0,0,100,0.00,0.00,0,0,0,0.00
2013-1-16,29.9,28.3,26.4,0.0,0.0,0.0,0,0,100,0.00,0.00,0,0,0,0.00
2013-1-17,34.7,26.8,18.8,0.0,0.0,0.0,0,0,100,0.00,0.00,0,0,0,0.00
2013-1-18,14.6,7.7,-0.8,0.0,0.0,0.0,0,0,100,0.00,0.00,1,0,1,0.00
2013-1-19,37.8,27.0,16.7,0.0,0.0,0.0,0,0,100,0.00,0.00,0,0,0,0.00
2013-1-20,38.5,37.8,37.0,0.0,0.0,0.0,0,0,100,0.00,40.00,2,2,2,0.00
2013-1-21,21.8,15.5,10.0,0.0,0.0,0.0,0,0,100,0.00,0.00,1,0,1,0.00
2013-1-22,15.7,11.1,2.2,0.0,0.0,0.0,0,0,100,0.00,0.00,3,0,3,0.00
2013-1-23,0.7,-3.9,-12.8,0.0,0.0,0.0,0,0,100,0.00,0.00,2,0,2,0.00
2013-1-24,6.2,-4.1,-14.8,0.0,0.0,0.0,0,0,100,0.00,0.00,8,2,8,0.00
2013-1-25,11.2,3.5,-5.5,0.0,0.0,0.0,0,0,100,0.00,0.00,2,0,2,0.00
2013-1-26,12.3,6.1,0.7,0.0,0.0,0.0,0,0,100,0.00,0.00,4,0,4,0.00
2013-1-27,19.8,10.8,4.9,0.0,0.0,0.0,0,0,100,0.00,0.00,0,0,0,0.00
2013-1-28,20.8,13.4,3.6,0.0,0.0,0.0,0,0,100,0.00,0.00,0,0,0,0.00
2013-1-29,33.2,25.1,17.8,0.0,0.0,0.0,0,0,100,0.00,0.00,0,0,0,0.00
2013-1-30,47.0,34.5,30.7,0.0,0.0,0.0,0,0,100,0.00,0.00,0,0,0,0.00
2013-1-31,53.5,49.8,39.3,0.0,0.0,0.0,0,0,100,0.00,0.00,2,1,2,0.00
2013-2-1,21.8,18.5,16.7,0.0,0.0,0.0,0,0,100,0.00,0.00,2,1,2,0.00
2013-2-2,19.8,11.1,6.2,0.0,0.0,0.0,0,0,100,0.00,0.00,0,0,0,0.00
2013-2-3,24.6,17.4,10.0,0.0,0.0,0.0,0,0,100,0.00,0.00,0,0,0,0.00
2013-2-4,23.7,17.6,13.5,0.0,0.0,0.0,0,0,100,0.00,0.00,4,1,4,0.00
2013-2-5,10.0,7.8,6.2,0.0,0.0,0.0,0,0,100,0.00,0.00,0,0,0,0.00
2013-2-6,29.9,23.4,15.7,0.0,0.0,0.0,0,0,100,0.00,0.00,2,0,2,0.00
2013-2-7,19.8,12.7,4.9,0.0,0.0,0.0,0,0,100,0.00,0.00,2,0,2,0.00
2013-2-8,16.7,14.6,12.3,0.0,0.0,0.0,0,0,100,0.00,0.00,2,0,2,0.00
2013-2-9,15.7,11.1,6.2,0.0,0.0,0.0,0,0,100,0.00,0.00,5,2,5,0.00
2013-2-10,29.0,13.3,2.2,0.0,0.0,0.0,0,0,100,0.00,0.00,0,0,0,0.00
2013-2-11,29.0,22.2,15.7,0.0,0.0,0.0,0,0,100,0.00,0.00,0,0,0,0.00
2013-2-12,38.5,34.0,30.7,0.0,0.0,0.0,0,0,100,0.00,0.00,4,1,4,0.00
2013-2-13,37.8,30.7,26.4,0.0,0.0,0.0,0,0,100,0.00,0.00,0,0,0,0.00
2013-2-14,38.5,30.1,25.5,0.0,0.0,0.0,0,0,100,0.00,0.00,0,0,0,0.00
2013-2-15,45.6,33.2,24.6,0.0,0.0,0.0,0,0,100,0.00,0.00,2,0,2,0.00
2013-2-16,33.9,28.9,20.8,0.0,0.0,0.0,0,0,100,0.00,0.00,2,0,2,0.00
2013-2-17,18.8,13.7,7.5,0.0,0.0,0.0,0,0,100,0.00,0.00,5,2,5,0.00
2013-2-18,22.7,13.5,3.6,0.0,0.0,0.0,0,0,100,0.00,0.00,6,4,6,0.00
2013-2-19,16.7,14.8,13.5,0.0,0.0,0.0,0,0,100,0.00,0.00,0,0,0,0.00
2013-2-20,33.2,27.8,24.6,0.0,0.0,0.0,0,0,100,0.00,0.00,2,1,2,0.00
2013-2-21,24.6,18.3,13.5,0.0,0.0,0.0,0,0,100,0.00,0.00,4,1,4,0.00
2013-2-22,37.8,27.5,17.8,0.0,0.0,0.0,0,0,100,0.00,0.00,0,0,0,0.00
2013-2-23,27.3,27.1,26.4,0.0,0.0,0.0,0,0,100,0.00,0.00,0,0,0,0.00
2013-2-24,33.9,31.6,29.9,0.0,0.0,0.0,0,0,100,0.00,0.00,0,0,0,0.00
2013-2-25,34.7,31.2,26.4,0.0,0.0,0.0,0,0,100,0.00,0.00,0,0,0,0.00
2013-2-26,39.3,32.9,29.0,0.0,0.0,0.0,0,0,100,0.00,0.00,0,0,0,0.00
2013-2-27,30.7,30.7,30.7,0.0,0.0,0.0,0,0,100,0.00,40.00,1,1,1,0.00
2013-2-28,41.5,34.2,27.3,0.0,0.0,0.0,0,0,100,0.00,0.00,0,0,0,0.00
2013-3-1,36.3,33.0,29.9,0.0,0.0,0.0,0,0,100,0.00,0.00,0,0,0,0.00
2013-3-2,34.7,30.6,26.4,0.0,0.0,0.0,0,0,100,0.00,0.00,3,0,3,0.00
2013-3-3,34.7,28.2,22.7,0.0,0.0,0.0,0,0,100,0.00,0.00,0,0,0,0.00
2013-3-4,31.5,27.3,24.6,0.0,0.0,0.0,0,0,100,0.00,0.00,4,1,4,0.00
2013-3-5,40.7,31.4,24.6,0.0,0.0,0.0,0,0,100,0.00,0.00,1,0,1,0.00
2013-3-6,33.9,32.1,29.0,0.0,0.0,0.0,0,0,100,0.00,0.00,2,1,2,0.00
2013-3-7,35.5,30.3,26.4,0.0,0.0,0.0,0,0,100,0.00,0.00,2,0,2,0.00
2013-3-8,38.5,31.9,27.3,0.0,0.0,0.0,0,0,100,0.00,0.00,1,0,1,0.00
2013-3-9,29.0,29.0,29.0,0.0,0.0,0.0,0,0,100,0.00,40.00,0,0,0,0.00
2013-3-10,49.6,39.0,27.3,0.0,0.0,0.0,0,0,100,0.00,0.00,0,0,0,0.00
2013-3-11,49.0,39.9,31.5,0.0,0.0,0.0,0,0,100,0.00,0.00,0,0,0,0.00
2013-3-12,47.7,42.4,37.8,0.0,0.0,0.0,0,0,100,0.00,0.00,2,0,2,0.00
2013-3-13,44.3,37.0,29.9,0.0,0.0,0.0,0,0,100,0.00,0.00,0,0,0,0.00
2013-3-14,31.5,25.5,14.6,0.0,0.0,0.0,0,0,100,0.00,0.00,2,1,2,0.00
2013-3-15,14.6,14.6,14.6,0.0,0.0,0.0,0,0,100,0.00,40.00,0,0,0,0.00
2013-3-16,33.2,25.8,17.8,0.0,0.0,0.0,0,0,100,0.00,0.00,2,0,2,0.00
2013-3-17,29.9,21.8,14.6,0.0,0.0,0.0,0,0,100,0.00,0.00,4,1,4,0.00
2013-3-18,36.3,22.8,7.5,0.0,0.0,0.0,0,0,100,0.00,0.00,0,0,0,0.00
2013-3-19,24.6,24.6,24.6,0.0,0.0,0.0,0,0,100,0.00,40.00,0,0,0,0.00
2013-3-20,34.7,26.6,21.8,0.0,0.0,0.0,0,0,100,0.00,0.00,0,0,0,0.00
2013-3-21,42.2,27.5,14.6,0.0,0.0,0.0,0,0,100,0.00,0.00,0,0,0,0.00
2013-3-22,37.0,27.8,15.7,0.0,0.0,0.0,0,0,100,0.00,0.00,2,1,2,0.00
2013-3-23,36.3,30.0,22.7,0.0,0.0,0.0,0,0,100,0.00,0.00,4,2,4,0.00
2013-3-24,42.2,33.3,27.3,0.0,0.0,0.0,0,0,100,0.00,0.00,4,0,4,0.00
2013-3-25,46.3,32.5,23.7,0.0,0.0,0.0,0,0,100,0.00,0.00,0,0,0,0.00
2013-3-26,45.6,38.7,30.7,0.0,0.0,0.0,0,0,100,0.00,0.00,2,0,2,0.00
2013-3-27,47.0,38.1,28.2,0.0,0.0,0.0,0,0,100,0.00,0.00,4,1,4,0.00
2013-3-28,48.3,37.1,33.2,0.0,0.0,0.0,0,0,100,0.00,0.00,0,0,0,0.00
2013-3-29,47.7,39.4,34.7,0.0,0.0,0.0,0,0,100,0.00,0.00,0,0,0,0.00
2013-3-30,50.9,40.7,33.2,0.0,0.0,0.0,0,0,100,0.00,0.00,1,0,1,0.00
2013-3-31,32.3,30.1,29.0,0.0,0.0,0.0,0,0,100,0.00,40.00,0,0,0,0.00
2013-4-1,54.1,40.3,35.5,0.0,0.0,0.0,0,0,100,0.00,40.00,0,0,1,0.00
2013-4-2,31.5,26.5,21.8,0.0,0.0,0.0,0,0,100,0.00,0.00,3,1,3,0.00
2013-4-3,42.2,29.1,21.8,0.0,0.0,0.0,0,0,100,0.00,0.00,4,2,4,0.00
2013-4-4,52.2,37.4,23.7,0.0,0.0,0.0,0,0,100,0.00,0.00,0,0,0,0.00
2013-4-5,56.0,41.1,33.2,0.0,0.0,0.0,0,0,100,0.00,0.00,2,0,2,0.00
2013-4-6,33.2,26.1,20.8,0.0,0.0,0.0,0,0,100,0.00,0.00,4,2,4,0.00
2013-4-7,54.1,37.6,29.9,0.0,0.0,0.0,0,0,100,0.00,0.00,0,0,0,0.00
2013-4-8,54.7,46.7,39.3,0.0,0.0,0.0,0,0,100,0.00,0.00,0,0,0,0.00
2013-4-9,45.0,42.2,40.0,0.0,0.0,0.0,0,0,100,0.00,40.00,2,1,2,0.00
2013-4-10,42.2,42.2,42.2,0.0,0.0,0.0,0,0,100,0.00,40.00,0,0,0,0.00
2013-4-11,40.0,40.0,40.0,0.0,0.0,0.0,0,0,100,0.00,40.00,0,0,0,0.00
2013-4-12,32.3,30.5,28.2,0.0,0.0,0.0,0,0,100,0.00,0.00,2,1,2,0.00
2013-4-13,42.2,36.3,30.7,0.0,0.0,0.0,0,0,100,0.00,40.00,0,0,0,0.00
2013-4-14,46.3,40.1,35.5,0.0,0.0,0.0,0,0,100,0.00,0.00,4,1,4,0.00
2013-4-15,30.7,30.7,30.7,0.0,0.0,0.0,0,0,100,0.00,40.00,0,0,0,0.00
2013-4-16,38.5,38.5,38.5,0.0,0.0,0.0,0,0,100,0.00,40.00,0,0,0,0.00
2013-4-17,54.1,46.4,41.5,0.0,0.0,0.0,0,0,100,0.00,40.00,2,0,2,0.00
2013-4-18,59.0,50.4,35.5,0.0,0.0,0.0,0,0,100,0.00,0.00,1,0,1,0.00
2013-4-20,43.6,41.8,40.0,0.0,0.0,0.0,0,0,100,0.00,40.00,0,0,0,0.00
2013-4-21,30.7,30.7,30.7,0.0,0.0,0.0,0,0,100,0.00,40.00,0,0,0,0.00
2013-4-22,36.3,33.5,30.7,0.0,0.0,0.0,0,0,100,0.00,40.00,0,0,0,0.00
2013-4-23,31.5,31.5,31.5,0.0,0.0,0.0,0,0,100,0.00,40.00,0,0,0,0.00
2013-4-24,68.4,53.3,39.3,0.0,0.0,0.0,0,0,100,0.00,0.00,0,0,0,0.00
2013-4-26,60.2,49.8,37.0,0.0,0.0,0.0,0,0,100,0.00,0.00,0,0,0,0.00
2013-4-27,42.9,40.7,39.3,0.0,0.0,0.0,0,0,100,0.00,40.00,0,0,0,0.00
2013-4-28,70.2,50.0,38.5,0.0,0.0,0.0,0,0,100,0.00,0.00,0,0,0,0.00
2013-4-29,65.0,52.3,45.0,0.0,0.0,0.0,0,0,100,0.00,40.00,0,0,0,0.00
2013-4-30,65.5,54.7,49.6,0.0,0.0,0.0,0,0,100,0.00,0.00,0,0,0,0.00
2013-5-1,78.1,66.8,43.6,0.0,0.0,0.0,0,0,100,0.00,0.00,0,0,0,0.00
2013-5-2,54.7,50.2,47.7,0.0,0.0,0.0,0,0,100,0.00,40.00,0,0,0,0.00
2013-5-3,70.7,56.3,38.5,0.0,0.0,0.0,0,0,100,0.00,0.00,0,0,0,0.00
2013-5-4,74.7,57.6,44.3,0.0,0.0,0.0,0,0,100,0.00,0.00,0,0,0,0.00
2013-5-5,45.6,41.6,37.8,0.0,0.0,0.0,0,0,100,0.00,0.00,0,0,0,0.00
2013-5-6,79.3,67.3,39.3,0.0,0.0,0.0,0,0,100,0.00,0.00,0,0,0,0.00
2013-5-7,81.0,62.6,50.3,0.0,0.0,0.0,0,0,100,0.00,0.00,0,0,0,0.00
2013-5-8,72.4,62.4,55.4,0.0,0.0,0.0,0,0,100,0.00,0.00,1,0,1,0.00
2013-5-9,67.3,61.5,56.0,0.0,0.0,0.0,0,0,100,0.00,0.00,0,0,0,0.00
2013-5-10,80.4,65.3,50.9,0.0,0.0,0.0,0,0,100,0.00,0.00,1,0,1,0.00
2013-5-11,65.0,62.6,59.0,0.0,0.0,0.0,0,0,100,0.00,0.00,0,0,0,0.00
2013-5-12,66.1,54.9,45.6,0.0,0.0,0.0,0,0,100,0.00,0.00,1,0,1,0.00
2013-5-13,45.6,42.0,38.5,0.0,0.0,0.0,0,0,100,0.00,0.00,2,0,2,0.00
2013-5-14,53.5,46.2,36.3,0.0,0.0,0.0,0,0,100,0.00,0.00,1,0,1,0.00
2013-5-15,45.6,38.9,34.7,0.0,0.0,0.0,0,0,100,0.00,0.00,0,0,0,0.00
2013-5-16,78.7,63.8,48.3,0.0,0.0,0.0,0,0,100,0.00,0.00,4,1,4,0.00
2013-5-17,66.1,54.4,45.6,0.0,0.0,0.0,0,0,100,0.00,0.00,2,0,2,0.00
2013-5-18,74.2,59.4,41.5,0.0,0.0,0.0,0,0,100,0.00,0.00,0,0,0,0.00
2013-5-19,67.9,55.0,46.3,0.0,0.0,0.0,0,0,100,0.00,0.00,0,0,0,0.00
2013-5-20,78.1,63.8,53.5,0.0,0.0,0.0,0,0,100,0.00,0.00,0,0,0,0.00
2013-5-21,82.1,65.0,50.3,0.0,0.0,0.0,0,0,100,0.00,0.00,0,0,0,0.00
2013-5-22,67.9,55.5,49.6,0.0,0.0,0.0,0,0,100,0.00,0.00,1,0,1,0.00
2013-5-23,74.2,60.9,50.9,0.0,0.0,0.0,0,0,100,0.00,0.00,0,0,0,0.00
2013-5-24,63.8,56.5,44.3,0.0,0.0,0.0,0,0,100,0.00,0.00,2,0,2,0.00
2013-5-25,44.3,41.2,34.7,0.0,0.0,0.0,0,0,100,0.00,0.00,2,0,2,0.00
2013-5-26,50.3,42.6,33.9,0.0,0.0,0.0,0,0,100,0.00,0.00,4,1,4,0.00
2013-5-27,69.6,54.4,40.0,0.0,0.0,0.0,0,0,100,0.00,0.00,2,0,2,0.00
2013-5-28,74.7,58.6,42.9,0.0,0.0,0.0,0,0,100,0.00,0.00,0,0,0,0.00
2013-5-29,55.4,54.8,54.1,0.0,0.0,0.0,0,0,100,0.00,40.00,0,0,0,0.00
2013-5-30,82.7,72.9,60.8,0.0,0.0,0.0,0,0,100,0.00,0.00,1,0,1,0.00
2013-5-31,90.8,75.5,63.8,0.0,0.0,0.0,0,0,100,0.00,0.00,1,0,1,0.00
2013-6-1,92.0,77.9,68.4,0.0,0.0,0.0,0,0,100,0.00,0.00,0,0,0,0.00
2013-6-2,89.0,73.1,64.4,0.0,0.0,0.0,0,0,100,0.00,0.00,0,0,0,0.00
2013-6-3,78.7,67.0,60.8,0.0,0.0,0.0,0,0,100,0.00,0.00,0,0,0,0.00
2013-6-4,50.9,48.7,47.0,0.0,0.0,0.0,0,0,100,0.00,40.00,0,0,0,0.00
2013-6-5,75.9,62.1,49.0,0.0,0.0,0.0,0,0,100,0.00,0.00,0,0,0,0.00
2013-6-6,73.0,62.3,52.2,0.0,0.0,0.0,0,0,100,0.00,0.00,0,0,0,0.00
2013-6-7,53.5,51.7,50.3,0.0,0.0,0.0,0,0,100,0.00,0.00,0,0,0,0.00
2013-6-8,66.7,60.3,50.9,0.0,0.0,0.0,0,0,100,0.00,0.00,0,0,0,0.00
2013-6-9,73.6,63.4,55.4,0.0,0.0,0.0,0,0,100,0.00,0.00,0,0,0,0.00
2013-6-10,69.0,62.2,56.0,0.0,0.0,0.0,0,0,100,0.00,0.00,0,0,0,0.00
2013-6-11,56.6,54.4,52.9,0.0,0.0,0.0,0,0,100,0.00,0.00,0,0,0,0.00
2013-6-12,60.2,56.7,53.5,0.0,0.0,0.0,0,0,100,0.00,0.00,0,0,0,0.00
2013-6-13,64.4,56.8,50.3,0.0,0.0,0.0,0,0,100,0.00,0.00,0,0,0,0.00
2013-6-14,77.0,62.1,50.9,0.0,0.0,0.0,0,0,100,0.00,0.00,0,0,0,0.00
2013-6-15,77.0,63.9,55.4,0.0,0.0,0.0,0,0,100,0.00,0.00,0,0,0,0.00
2013-6-16,74.7,62.5,56.0,0.0,0.0,0.0,0,0,100,0.00,0.00,0,0,0,0.00
2013-6-17,75.3,63.6,57.2,0.0,0.0,0.0,0,0,100,0.00,0.00,1,0,1,0.00
2013-6-18,59.6,56.9,54.1,0.0,0.0,0.0,0,0,100,0.00,0.00,0,0,0,0.00
2013-6-19,75.3,60.0,48.3,0.0,0.0,0.0,0,0,100,0.00,0.00,0,0,0,0.00
2013-6-20,81.6,63.6,48.3,0.0,0.0,0.0,0,0,100,0.00,0.00,2,0,2,0.00
2013-6-21,85.6,69.6,57.8,0.0,0.0,0.0,0,0,100,0.00,0.00,0,0,0,0.00
2013-6-22,82.1,69.7,59.6,0.0,0.0,0.0,0,0,100,0.00,0.00,0,0,0,0.00
2013-6-23,87.3,70.9,63.8,0.0,0.0,0.0,0,0,100,0.00,0.00,0,0,0,0.00
2013-6-24,90.2,74.6,67.3,0.0,0.0,0.0,0,0,100,0.00,0.00,0,0,0,0.00
2013-6-25,86.7,74.1,65.5,0.0,0.0,0.0,0,0,100,0.00,0.00,0,0,0,0.00
2013-6-26,75.3,68.4,65.0,0.0,0.0,0.0,0,0,100,0.00,0.00,0,0,0,0.00
2013-6-27,74.7,68.6,64.4,0.0,0.0,0.0,0,0,100,0.00,0.00,0,0,0,0.00
2013-6-28,67.3,61.6,56.0,0.0,0.0,0.0,0,0,100,0.00,0.00,1,0,1,0.00
2013-6-29,83.3,72.7,63.8,0.0,0.0,0.0,0,0,100,0.00,0.00,1,0,1,0.00
2013-6-30,83.3,72.5,65.5,0.0,0.0,0.0,0,0,100,0.00,0.00,0,0,0,0.00
2013-7-1,74.7,70.3,67.3,0.0,0.0,0.0,0,0,100,0.00,0.00,0,0,0,0.00
2013-7-2,68.4,68.4,68.4,0.0,0.0,0.0,0,0,100,0.00,40.00,0,0,0,0.00
2013-7-3,62.6,62.3,62.0,0.0,0.0,0.0,0,0,100,0.00,40.00,0,0,0,0.00
2013-7-4,69.6,69.6,69.6,0.0,0.0,0.0,0,0,100,0.00,40.00,0,0,0,0.00
2013-7-5,71.3,71.3,71.3,0.0,0.0,0.0,0,0,100,0.00,40.00,0,0,0,0.00
2013-7-7,90.2,75.0,68.4,0.0,0.0,0.0,0,0,100,0.00,0.00,0,0,0,0.00
2013-7-8,83.8,74.8,68.4,0.0,0.0,0.0,0,0,100,0.00,0.00,0,0,0,0.00
2013-7-9,82.1,70.7,63.2,0.0,0.0,0.0,0,0,100,0.00,0.00,0,0,0,0.00
2013-7-11,78.7,72.0,66.7,0.0,0.0,0.0,0,0,100,0.00,0.00,0,0,0,0.00
2013-7-12,64.4,62.2,60.8,0.0,0.0,0.0,0,0,100,0.00,0.00,0,0,0,0.00
2013-7-17,92.0,81.5,69.0,0.0,0.0,0.0,0,0,100,0.00,0.00,0,0,0,0.00
2013-7-18,76.4,73.6,70.7,0.0,0.0,0.0,0,0,100,0.00,0.00,0,0,0,0.00
2013-7-20,86.1,74.0,66.1,0.0,0.0,0.0,0,0,100,0.00,0.00,2,0,2,0.00
2013-7-21,79.3,70.8,62.6,0.0,0.0,0.0,0,0,100,0.00,0.00,0,0,0,0.00
2013-7-22,74.2,67.0,62.6,0.0,0.0,0.0,0,0,100,0.00,0.00,0,0,0,0.00
2013-7-23,72.4,66.0,62.6,0.0,0.0,0.0,0,0,100,0.00,0.00,0,0,0,0.00
2013-7-24,74.2,67.4,65.0,0.0,0.0,0.0,0,0,100,0.00,0.00,0,0,0,0.00
2013-7-25,73.0,61.7,48.3,0.0,0.0,0.0,0,0,100,0.00,0.00,0,0,0,0.00
2013-7-26,68.4,62.9,60.2,0.0,0.0,0.0,0,0,100,0.00,0.00,0,0,0,0.00
2013-7-27,83.8,69.6,57.2,0.0,0.0,0.0,0,0,100,0.00,0.00,0,0,0,0.00
2013-7-28,81.6,69.1,60.8,0.0,0.0,0.0,0,0,100,0.00,0.00,0,0,0,0.00
2013-7-29,83.8,70.6,64.4,0.0,0.0,0.0,0,0,100,0.00,0.00,0,0,0,0.00
2013-7-30,75.9,66.8,59.0,0.0,0.0,0.0,0,0,100,0.00,0.00,0,0,0,0.00
2013-7-31,74.2,64.9,59.0,0.0,0.0,0.0,0,0,100,0.00,0.00,0,0,0,0.00
2013-8-1,76.4,65.7,60.8,0.0,0.0,0.0,0,0,100,0.00,0.00,0,0,0,0.00
2013-8-2,75.9,66.0,62.0,0.0,0.0,0.0,0,0,100,0.00,0.00,0,0,0,0.00
2013-8-3,76.4,64.4,59.0,0.0,0.0,0.0,0,0,100,0.00,0.00,0,0,0,0.00
2013-8-4,72.4,63.8,57.8,0.0,0.0,0.0,0,0,100,0.00,0.00,2,0,2,0.00
2013-8-5,73.0,58.5,53.5,0.0,0.0,0.0,0,0,100,0.00,0.00,1,0,1,0.00
2013-8-6,81.6,63.9,50.9,0.0,0.0,0.0,0,0,100,0.00,0.00,0,0,0,0.00
2013-8-7,78.1,67.0,58.4,0.0,0.0,0.0,0,0,100,0.00,0.00,0,0,0,0.00
2013-8-8,83.8,71.2,63.8,0.0,0.0,0.0,0,0,100,0.00,0.00,0,0,0,0.00
2013-8-9,73.0,69.9,68.4,0.0,0.0,0.0,0,0,100,0.00,0.00,0,0,0,0.00
2013-8-10,70.7,65.6,62.0,0.0,0.0,0.0,0,0,100,0.00,0.00,0,0,0,0.00
2013-8-11,79.3,63.9,54.7,0.0,0.0,0.0,0,0,100,0.00,0.00,0,0,0,0.00
2013-8-12,80.4,67.3,58.4,0.0,0.0,0.0,0,0,100,0.00,0.00,0,0,0,0.00
2013-8-13,69.6,64.3,60.8,0.0,0.0,0.0,0,0,100,0.00,0.00,0,0,0,0.00
2013-8-22,85.0,74.9,66.7,0.0,0.0,0.0,0,0,100,0.00,0.00,0,0,0,0.00
2013-8-23,75.3,65.5,58.4,0.0,0.0,0.0,0,0,100,0.00,0.00,1,0,1,0.00
2013-8-24,81.0,63.3,50.3,0.0,0.0,0.0,0,0,100,0.00,0.00,0,0,0,0.00
2013-8-25,82.7,65.4,52.9,0.0,0.0,0.0,0,0,100,0.00,0.00,0,0,0,0.00
2013-8-26,74.2,67.5,60.2,0.0,0.0,0.0,0,0,100,0.00,0.00,0,0,0,0.00
2013-8-27,85.6,73.3,65.5,0.0,0.0,0.0,0,0,100,0.00,0.00,0,0,0,0.00
2013-8-28,86.1,71.8,64.4,0.0,0.0,0.0,0,0,100,0.00,0.00,2,0,2,0.00
2013-8-29,67.9,63.8,61.4,0.0,0.0,0.0,0,0,100,0.00,0.00,0,0,0,0.00
2013-8-30,60.8,60.5,60.2,0.0,0.0,0.0,0,0,100,0.00,0.00,0,0,0,0.00
2013-8-31,75.9,70.8,65.5,0.0,0.0,0.0,0,0,100,0.00,0.00,0,0,0,0.00
2013-9-1,81.6,71.9,67.3,0.0,0.0,0.0,0,0,100,0.00,0.00,0,0,0,0.00
2013-9-2,74.2,69.7,66.1,0.0,0.0,0.0,0,0,100,0.00,0.00,0,0,0,0.00
2013-9-3,65.5,64.9,64.4,0.0,0.0,0.0,0,0,100,0.00,40.00,0,0,0,0.00
2013-9-4,77.0,65.6,57.8,0.0,0.0,0.0,0,0,100,0.00,0.00,0,0,0,0.00
2013-9-5,61.4,61.4,61.4,0.0,0.0,0.0,0,0,100,0.00,40.00,0,0,0,0.00